Аэропорт: Днепропетровск. Днепропетровск

ICAO: UKDD

METAR:
2021-04-21 20:00:00
UKDD 212000Z 16003MPS 120V200 CAVOK 09/06 Q1017 R26/090070 NOSIG
METAR:
2021-04-21 11:05:00
TAF UKDD 211105Z 2112/2212 23006G11MPS 9999 BKN030 TX15/2112Z TN05/2203Z TEMPO 2112/2117 VRB10G15MPS 1100 -TSRAGR SQ BKN004 BKN015CB BECMG 2117/2119 21005MPS